CheckWX is a tool to help pilots better visualize weather data.  It is not intended as a substitute for an official pre-flight weather briefing.

00:30:24 UTC

KRNT METAR
Renton Municipal Airport
Renton, Washington, USA
Current

37 mins ago

KRNT 162353Z 15008KT 110V170 8SM FEW047 SCT065 BKN100 19/11 A2982 RMK AO2 SLP101 T01890106 10206 20167 53000
Observed
Sep-16 @ 23:53 UTC
Wind
  • 150° at 8 KTS
Visibility
8 SM
Flight Rules
VFR
Cloud Levels
  • Few at 4,700' AGL
  • Scattered at 6,500' AGL
  • Broken at 10,000' AGL
Temperature
19°C / 66°F
Dewpoint
11°C / 52°F
Humidity
60%
Altimeter
29.82" Hg
Pressure
1009.82 hPa
Previous

2 hours ago

KRNT 162253Z VRB04KT 5SM HZ SCT039 BKN080 20/10 A2981 RMK AO2 SLP099 T02000100
Observed
Sep-16 @ 22:53 UTC
Wind
  • Variable at 4 KTS
Visibility
5 SM
Flight Rules
MVFR
Conditions
Haze
Cloud Levels
  • Scattered at 3,900' AGL
  • Broken at 8,000' AGL
Temperature
20°C / 68°F
Dewpoint
10°C / 50°F
Humidity
53%
Altimeter
29.81" Hg
Pressure
1009.52 hPa
Previous

3 hours ago

KRNT 162153Z 17006KT 8SM BKN090 BKN110 19/10 A2981 RMK AO2 SLP100 T01940100
Observed
Sep-16 @ 21:53 UTC
Wind
  • 170° at 6 KTS
Visibility
8 SM
Flight Rules
VFR
Cloud Levels
  • Broken at 9,000' AGL
  • Broken at 11,000' AGL
Temperature
19°C / 66°F
Dewpoint
10°C / 50°F
Humidity
56%
Altimeter
29.81" Hg
Pressure
1009.52 hPa